createdAt,value
2022-09-06T00:00:16.386Z,93264.38
2022-09-06T00:03:01.160Z,93254.16
2022-09-06T00:05:44.556Z,93252.56
2022-09-06T00:08:27.634Z,93250.75
2022-09-06T00:11:11.133Z,93247.22
2022-09-06T00:13:54.196Z,93248.44
2022-09-06T00:16:37.151Z,93244.50
2022-09-06T00:19:21.486Z,93242.31
2022-09-06T00:22:04.528Z,93243.56
2022-09-06T00:24:47.555Z,93243.19
2022-09-06T00:27:31.099Z,93246.56
2022-09-06T00:30:14.345Z,93238.97
2022-09-06T00:32:57.899Z,93233.75
2022-09-06T00:35:42.287Z,93233.16
2022-09-06T00:38:25.335Z,93234.56
2022-09-06T00:41:10.583Z,93238.56
2022-09-06T00:43:53.610Z,93240.81
2022-09-06T00:46:38.441Z,93243.03
2022-09-06T00:49:25.334Z,93245.63
2022-09-06T00:52:13.687Z,93245.47
2022-09-06T00:54:57.453Z,93246.47
2022-09-06T00:57:40.829Z,93246.25
2022-09-06T01:00:23.912Z,93247.03
2022-09-06T01:03:08.209Z,93240.84
2022-09-06T01:06:01.544Z,93237.66
2022-09-06T01:09:00.192Z,93225.63
2022-09-06T01:11:59.267Z,93234.25
2022-09-06T01:14:57.782Z,93231.63
2022-09-06T01:17:52.866Z,93226.63
2022-09-06T01:20:51.469Z,93228.25
2022-09-06T01:23:59.545Z,93227.41
2022-09-06T01:27:20.631Z,93230.59
2022-09-06T01:30:07.573Z,93232.56
2022-09-06T01:32:57.795Z,93231.16
2022-09-06T01:35:45.418Z,93236.53
2022-09-06T01:38:28.957Z,93237.53
2022-09-06T01:41:12.409Z,93232.53
2022-09-06T01:43:56.527Z,93229.31
2022-09-06T01:46:48.735Z,93240.09
2022-09-06T01:49:50.670Z,93234.47
2022-09-06T01:52:40.510Z,93238.25
2022-09-06T01:55:31.533Z,93231.81
2022-09-06T01:58:29.647Z,93227.94
2022-09-06T02:01:22.802Z,93232.53
2022-09-06T02:04:15.037Z,93228.69
2022-09-06T02:07:01.995Z,93226.44
2022-09-06T02:09:49.660Z,93231.66
2022-09-06T02:12:35.679Z,93234.44
2022-09-06T02:15:23.509Z,93233.63
2022-09-06T02:18:12.275Z,93228.00
2022-09-06T02:20:59.784Z,93233.56
2022-09-06T02:23:45.376Z,93228.75
2022-09-06T02:26:31.603Z,93229.09
2022-09-06T02:29:15.226Z,93222.28
2022-09-06T02:32:02.604Z,93226.69
2022-09-06T02:34:46.608Z,93229.47
2022-09-06T02:37:30.955Z,93223.66
2022-09-06T02:40:14.284Z,93218.84
2022-09-06T02:42:57.323Z,93219.19
2022-09-06T02:45:40.791Z,93220.56
2022-09-06T02:48:24.130Z,93215.72
2022-09-06T02:51:09.834Z,93211.06
2022-09-06T02:53:54.445Z,93213.25
2022-09-06T02:56:37.635Z,93220.78
2022-09-06T02:59:20.782Z,93223.13
2022-09-06T03:02:03.870Z,93215.09
2022-09-06T03:04:46.945Z,93211.41
2022-09-06T03:07:29.898Z,93215.09
2022-09-06T03:10:14.511Z,93202.81
2022-09-06T03:12:58.580Z,93208.22
2022-09-06T03:15:41.642Z,93203.03
2022-09-06T03:18:25.268Z,93200.63
2022-09-06T03:21:08.404Z,93198.81
2022-09-06T03:23:51.487Z,93203.81
2022-09-06T03:26:35.950Z,93198.81
2022-09-06T03:29:19.001Z,93195.44
2022-09-06T03:32:02.378Z,93190.22
2022-09-06T03:34:45.463Z,93190.22
2022-09-06T03:37:28.779Z,93185.19
2022-09-06T03:40:12.898Z,93191.22
2022-09-06T03:42:57.293Z,93188.78
2022-09-06T03:45:40.663Z,93190.59
2022-09-06T03:48:25.601Z,93186.53
2022-09-06T03:51:08.847Z,93188.69
2022-09-06T03:53:51.912Z,93187.44
2022-09-06T03:56:35.056Z,93186.03
2022-09-06T03:59:19.479Z,93182.00
2022-09-06T04:02:03.215Z,93182.00
2022-09-06T04:04:46.341Z,93180.03
2022-09-06T04:07:29.373Z,93180.66
2022-09-06T04:10:12.482Z,93187.91
2022-09-06T04:12:55.643Z,93180.56
2022-09-06T04:15:40.509Z,93183.78
2022-09-06T04:18:23.920Z,93187.00
2022-09-06T04:21:07.508Z,93175.63
2022-09-06T04:23:50.751Z,93178.03
2022-09-06T04:26:33.918Z,93180.28
2022-09-06T04:29:16.944Z,93178.31
2022-09-06T04:32:01.412Z,93178.09
2022-09-06T04:34:44.470Z,93174.72
2022-09-06T04:37:27.541Z,93175.72
2022-09-06T04:40:11.424Z,93178.47
2022-09-06T04:42:54.522Z,93184.66
2022-09-06T04:45:37.670Z,93184.84
2022-09-06T04:48:22.148Z,93192.63
2022-09-06T04:51:05.737Z,93188.06
2022-09-06T04:53:49.519Z,93190.47
2022-09-06T04:56:32.526Z,93187.72
2022-09-06T04:59:15.620Z,93192.72
2022-09-06T05:01:58.684Z,93189.94
2022-09-06T05:04:43.165Z,93194.94
2022-09-06T05:07:26.298Z,93193.75
2022-09-06T05:14:56.278Z,93199.88
2022-09-06T05:17:39.349Z,93194.50
2022-09-06T05:20:23.693Z,93207.13
2022-09-06T05:23:06.693Z,93205.59
2022-09-06T05:25:50.275Z,93202.44
2022-09-06T05:28:33.357Z,93210.50
2022-09-06T05:31:27.049Z,93212.19
2022-09-06T05:34:10.547Z,93210.44
2022-09-06T05:36:54.948Z,93223.50
2022-09-06T05:39:38.070Z,93220.81
2022-09-06T05:42:21.279Z,93222.50
2022-09-06T05:45:06.606Z,93227.91
2022-09-06T05:47:49.615Z,93226.41
2022-09-06T05:50:32.615Z,93218.81
2022-09-06T05:53:16.919Z,93224.09
2022-09-06T05:56:00.000Z,93222.59
2022-09-06T05:58:43.030Z,93220.41
2022-09-06T06:01:28.645Z,93220.81
2022-09-06T06:04:11.703Z,93219.63
2022-09-06T06:06:54.639Z,93213.28
2022-09-06T06:09:39.060Z,93222.50
2022-09-06T06:12:22.069Z,93228.13
2022-09-06T06:15:06.449Z,93235.97
2022-09-06T06:17:49.519Z,93233.00
2022-09-06T06:20:32.591Z,93232.47
2022-09-06T06:23:15.769Z,93235.47
2022-09-06T06:26:00.150Z,93234.13
2022-09-06T06:28:43.287Z,93226.72
2022-09-06T06:31:26.288Z,93231.34
2022-09-06T06:34:09.609Z,93224.56
2022-09-06T06:36:52.873Z,93233.41
2022-09-06T06:39:35.912Z,93235.06
2022-09-06T06:42:20.327Z,93239.53
2022-09-06T06:45:09.286Z,93239.94
2022-09-06T06:47:52.244Z,93240.56
2022-09-06T06:50:35.215Z,93244.41
2022-09-06T06:53:19.469Z,93249.84
2022-09-06T06:56:02.814Z,93249.28
2022-09-06T06:58:48.881Z,93245.13
2022-09-06T07:01:33.652Z,93239.13
2022-09-06T07:04:16.688Z,93234.13
2022-09-06T07:13:06.748Z,93248.88
2022-09-06T07:15:51.519Z,93256.28
2022-09-06T07:18:34.513Z,93256.72
2022-09-06T07:24:22.226Z,93242.38
2022-09-06T07:30:09.787Z,93247.63
2022-09-06T07:32:54.128Z,93245.84
2022-09-06T07:35:37.085Z,93243.66
2022-09-06T07:38:19.966Z,93242.28
2022-09-06T07:41:05.530Z,93248.88
2022-09-06T07:43:48.415Z,93247.66
2022-09-06T07:46:31.467Z,93251.72
2022-09-06T07:49:15.895Z,93247.50
2022-09-06T07:51:59.005Z,93248.69
2022-09-06T07:54:42.066Z,93255.31
2022-09-06T07:57:25.093Z,93261.75
2022-09-06T08:00:10.236Z,93260.94
2022-09-06T08:02:54.700Z,93255.13
2022-09-06T08:08:58.241Z,93260.16
2022-09-06T08:11:42.179Z,93263.75
2022-09-06T08:14:25.438Z,93266.19
2022-09-06T08:17:08.363Z,93260.75
2022-09-06T08:19:51.313Z,93257.94
2022-09-06T08:22:35.663Z,93257.91
2022-09-06T08:25:18.707Z,93260.13
2022-09-06T08:28:01.734Z,93251.69
2022-09-06T08:30:44.695Z,93256.91
2022-09-06T08:33:28.303Z,93261.56
2022-09-06T08:36:12.491Z,93257.31
2022-09-06T08:38:57.120Z,93258.91
2022-09-06T08:41:48.485Z,93254.91
2022-09-06T08:47:38.310Z,93262.88
2022-09-06T08:50:21.955Z,93257.03
2022-09-06T08:53:17.303Z,93256.00
2022-09-06T08:56:13.268Z,93248.72
2022-09-06T08:59:06.532Z,93257.16
2022-09-06T09:01:59.744Z,93249.44
2022-09-06T09:04:48.103Z,93255.44
2022-09-06T09:07:39.921Z,93247.72
2022-09-06T09:10:27.805Z,93247.03
2022-09-06T09:13:21.671Z,93256.25
2022-09-06T09:16:06.001Z,93245.69
2022-09-06T09:18:52.967Z,93246.59
2022-09-06T09:21:40.079Z,93254.16
2022-09-06T09:24:24.318Z,93252.03
2022-09-06T09:27:11.242Z,93254.47
2022-09-06T09:33:22.599Z,93243.00
2022-09-06T09:36:10.803Z,93240.19
2022-09-06T09:38:57.020Z,93233.66
2022-09-06T09:41:43.725Z,93230.44
2022-09-06T09:44:29.950Z,93226.44
2022-09-06T09:47:27.887Z,93226.22
2022-09-06T09:50:25.392Z,93224.06
2022-09-06T09:53:11.123Z,93222.50
2022-09-06T09:55:59.073Z,93222.22
2022-09-06T09:58:42.154Z,93216.84
2022-09-06T10:01:28.627Z,93219.25
2022-09-06T10:07:25.087Z,93216.69
2022-09-06T10:10:13.810Z,93212.28
2022-09-06T10:13:09.175Z,93213.81
2022-09-06T10:15:54.135Z,93211.41
2022-09-06T10:18:40.171Z,93208.84
2022-09-06T10:21:28.299Z,93213.41
2022-09-06T10:24:27.912Z,93214.09
2022-09-06T10:27:11.323Z,93216.19
2022-09-06T10:30:01.565Z,93213.50
2022-09-06T10:32:50.185Z,93214.25
2022-09-06T10:35:37.969Z,93217.44
2022-09-06T10:38:33.547Z,93207.13
2022-09-06T10:41:33.188Z,93216.91
2022-09-06T10:44:31.190Z,93202.84
2022-09-06T10:47:16.126Z,93210.56
2022-09-06T10:50:02.249Z,93204.00
2022-09-06T10:52:48.182Z,93209.56
2022-09-06T10:55:32.959Z,93204.22
2022-09-06T10:58:23.520Z,93204.03
2022-09-06T11:01:08.905Z,93199.34
2022-09-06T11:06:46.006Z,93202.53
2022-09-06T11:09:34.712Z,93200.50
2022-09-06T11:12:31.283Z,93205.53
2022-09-06T11:15:16.273Z,93198.16
2022-09-06T11:18:07.266Z,93204.81
2022-09-06T11:21:04.935Z,93193.75
2022-09-06T11:23:51.570Z,93194.06
2022-09-06T11:26:43.791Z,93194.13
2022-09-06T11:29:36.466Z,93176.28
2022-09-06T11:32:34.087Z,93178.09
2022-09-06T11:35:25.820Z,93170.69
2022-09-06T11:38:21.594Z,93164.28
2022-09-06T11:41:14.547Z,93165.63
2022-09-06T11:43:57.893Z,93157.97
2022-09-06T11:47:01.788Z,93158.53
2022-09-06T11:49:44.807Z,93154.78
2022-09-06T11:52:59.244Z,93142.09
2022-09-06T11:55:45.122Z,93147.69
2022-09-06T11:58:32.635Z,93146.66
2022-09-06T12:01:37.453Z,93145.88
2022-09-06T12:04:21.960Z,93145.88
2022-09-06T12:07:09.070Z,93146.91
2022-09-06T12:09:53.172Z,93131.81
2022-09-06T12:12:45.230Z,93128.16
2022-09-06T12:15:30.242Z,93134.78
2022-09-06T12:18:52.819Z,93124.44
2022-09-06T12:21:47.600Z,93135.81
2022-09-06T12:24:49.101Z,93121.53
2022-09-06T12:27:34.356Z,93131.06
2022-09-06T12:30:33.351Z,93134.00
2022-09-06T12:33:24.888Z,93131.59
2022-09-06T12:36:15.423Z,93131.88
2022-09-06T12:39:01.960Z,93131.34
2022-09-06T12:41:48.262Z,93132.66
2022-09-06T12:44:34.542Z,93127.38
2022-09-06T12:47:24.189Z,93124.72
2022-09-06T12:50:09.135Z,93124.72
2022-09-06T12:52:53.870Z,93117.81
2022-09-06T12:55:39.498Z,93118.88
2022-09-06T12:58:29.426Z,93113.84
2022-09-06T13:01:22.985Z,93109.59
2022-09-06T13:04:10.883Z,93106.16
2022-09-06T13:06:54.363Z,93108.78
2022-09-06T13:09:40.560Z,93108.22
2022-09-06T13:12:27.511Z,93099.97
2022-09-06T13:15:15.775Z,93109.25
2022-09-06T13:18:20.823Z,93098.63
2022-09-06T13:21:05.940Z,93093.56
2022-09-06T13:23:51.003Z,93093.59
2022-09-06T13:26:36.499Z,93089.63
2022-09-06T13:29:31.323Z,93092.59
2022-09-06T13:32:15.496Z,93092.88
2022-09-06T13:34:59.985Z,93087.06
2022-09-06T13:37:43.907Z,93086.53
2022-09-06T13:41:10.108Z,93083.63
2022-09-06T13:43:48.044Z,93068.50
2022-09-06T13:46:33.323Z,93074.34
2022-09-06T13:49:16.351Z,93076.22
2022-09-06T13:52:02.045Z,93084.16
2022-09-06T13:54:45.596Z,93077.75
2022-09-06T13:57:28.470Z,93080.91
2022-09-06T14:00:12.935Z,93070.06
2022-09-06T14:02:58.019Z,93079.31
2022-09-06T14:05:40.963Z,93066.06
2022-09-06T14:08:24.217Z,93069.78
2022-09-06T14:11:07.355Z,93068.44
2022-09-06T14:13:50.402Z,93068.69
2022-09-06T14:16:34.419Z,93064.97
2022-09-06T14:19:18.723Z,93059.94
2022-09-06T14:22:02.186Z,93066.84
2022-09-06T14:24:45.159Z,93055.19
2022-09-06T14:27:28.159Z,93053.84
2022-09-06T14:30:12.494Z,93067.09
2022-09-06T14:32:55.474Z,93063.66
2022-09-06T14:35:40.563Z,93056.53
2022-09-06T14:38:23.507Z,93056.53
2022-09-06T14:41:08.021Z,93058.09
2022-09-06T14:43:52.112Z,93064.09
2022-09-06T14:46:35.145Z,93058.72
2022-09-06T14:49:18.481Z,93053.66
2022-09-06T14:52:03.166Z,93055.53
2022-09-06T14:54:46.177Z,93053.75
2022-09-06T14:57:30.081Z,93058.03
2022-09-06T15:00:14.481Z,93056.50
2022-09-06T15:02:57.437Z,93059.41
2022-09-06T15:05:40.444Z,93052.56
2022-09-06T15:08:24.764Z,93046.75
2022-09-06T15:11:09.020Z,93048.56
2022-09-06T15:13:52.718Z,93042.50
2022-09-06T15:16:36.484Z,93040.91
2022-09-06T15:19:20.563Z,93046.94
2022-09-06T15:22:04.542Z,93038.09
2022-09-06T15:24:50.344Z,93038.28
2022-09-06T15:27:33.386Z,93034.22
2022-09-06T15:30:16.409Z,93027.53
2022-09-06T15:33:00.373Z,93029.09
2022-09-06T15:35:43.991Z,93020.06
2022-09-06T15:38:27.578Z,93021.03
2022-09-06T15:41:13.755Z,93029.34
2022-09-06T15:43:58.327Z,93019.91
2022-09-06T15:46:42.413Z,93017.69
2022-09-06T15:49:28.558Z,93017.34
2022-09-06T15:52:12.337Z,93015.94
2022-09-06T15:55:12.937Z,93006.44
2022-09-06T15:57:57.313Z,92992.50
2022-09-06T16:00:40.328Z,92995.88
2022-09-06T16:03:23.336Z,92992.94
2022-09-06T16:09:09.114Z,93003.94
2022-09-06T16:11:52.170Z,92995.72
2022-09-06T16:14:36.462Z,92996.44
2022-09-06T16:17:20.090Z,92997.47
2022-09-06T16:20:04.745Z,92998.00
2022-09-06T16:22:49.808Z,92995.28
2022-09-06T16:25:32.772Z,92988.69
2022-09-06T16:28:16.073Z,92994.03
2022-09-06T16:31:03.457Z,92989.97
2022-09-06T16:33:48.693Z,92991.03
2022-09-06T16:36:31.751Z,92987.81
2022-09-06T16:39:14.930Z,92987.75
2022-09-06T16:41:57.892Z,92985.28
2022-09-06T16:44:40.884Z,92984.19
2022-09-06T16:47:25.136Z,92982.53
2022-09-06T16:50:08.715Z,92981.13
2022-09-06T16:52:51.893Z,92977.28
2022-09-06T16:55:38.094Z,92974.81
2022-09-06T16:58:21.064Z,92977.16
2022-09-06T17:01:04.192Z,92967.78
2022-09-06T17:03:48.769Z,92969.00
2022-09-06T17:06:33.070Z,92967.56
2022-09-06T17:09:18.771Z,92961.66
2022-09-06T17:12:01.723Z,92960.22
2022-09-06T17:14:44.754Z,92960.63
2022-09-06T17:17:27.718Z,92961.16
2022-09-06T17:20:12.847Z,92963.19
2022-09-06T17:22:55.803Z,92967.13
2022-09-06T17:25:43.307Z,92962.97
2022-09-06T17:28:26.409Z,92965.06
2022-09-06T17:31:10.427Z,92966.81
2022-09-06T17:33:53.903Z,92963.06
2022-09-06T17:36:38.239Z,92968.56
2022-09-06T17:39:22.306Z,92970.38
2022-09-06T17:42:05.777Z,92967.81
2022-09-06T17:44:48.694Z,92969.41
2022-09-06T17:47:31.928Z,92973.84
2022-09-06T17:50:15.338Z,92980.88
2022-09-06T17:52:59.719Z,92981.66
2022-09-06T17:55:44.327Z,92980.38
2022-09-06T17:58:27.235Z,92969.88
2022-09-06T18:01:12.391Z,92974.06
2022-09-06T18:03:55.368Z,92973.00
2022-09-06T18:06:41.222Z,92975.13
2022-09-06T18:09:25.543Z,92980.81
2022-09-06T18:12:09.289Z,92975.47
2022-09-06T18:14:52.851Z,92974.28
2022-09-06T18:17:35.782Z,92976.19
2022-09-06T18:20:18.856Z,92988.41
2022-09-06T18:23:01.802Z,92983.94
2022-09-06T18:25:56.825Z,92999.56
2022-09-06T18:28:40.060Z,92996.22
2022-09-06T18:31:25.507Z,93000.50
2022-09-06T18:34:09.251Z,93011.41
2022-09-06T18:36:52.430Z,93019.91
2022-09-06T18:39:35.387Z,93024.75
2022-09-06T18:42:19.773Z,93030.63
2022-09-06T18:45:02.747Z,93042.34
2022-09-06T18:47:45.765Z,93049.16
2022-09-06T18:50:28.785Z,93053.56
2022-09-06T18:53:11.856Z,93055.59
2022-09-06T18:55:54.791Z,93058.66
2022-09-06T18:58:39.968Z,93065.75
2022-09-06T19:01:23.076Z,93066.34
2022-09-06T19:04:07.681Z,93069.56
2022-09-06T19:06:50.768Z,93067.00
2022-09-06T19:09:33.979Z,93067.59
2022-09-06T19:12:16.880Z,93060.38
2022-09-06T19:15:01.214Z,93063.78
2022-09-06T19:17:44.375Z,93067.41
2022-09-06T19:20:27.370Z,93072.84
2022-09-06T19:23:10.270Z,93064.16
2022-09-06T19:25:57.975Z,93064.78
2022-09-06T19:28:41.397Z,93061.44
2022-09-06T19:31:27.116Z,93062.09
2022-09-06T19:34:10.271Z,93056.50
2022-09-06T19:36:55.291Z,93056.25
2022-09-06T19:39:38.555Z,93043.63
2022-09-06T19:42:21.785Z,93046.66
2022-09-06T19:45:06.003Z,93043.63
2022-09-06T19:47:50.357Z,93038.84
2022-09-06T19:50:34.269Z,93032.66
2022-09-06T19:53:17.214Z,93028.28
2022-09-06T19:56:00.167Z,93026.84
2022-09-06T19:58:44.077Z,93026.25
2022-09-06T20:01:29.417Z,93018.88
2022-09-06T20:04:14.934Z,93019.72
2022-09-06T20:06:58.028Z,93018.91
2022-09-06T20:09:41.232Z,93018.47
2022-09-06T20:12:24.359Z,93013.88
2022-09-06T20:15:08.248Z,93008.66
2022-09-06T20:17:51.716Z,93004.03
2022-09-06T20:20:36.119Z,93002.03
2022-09-06T20:23:19.073Z,92997.81
2022-09-06T20:26:05.193Z,92992.00
2022-09-06T20:28:48.886Z,92994.78
2022-09-06T20:31:33.198Z,92993.38
2022-09-06T20:34:19.283Z,92998.59
2022-09-06T20:37:03.598Z,92992.19
2022-09-06T20:39:46.720Z,92991.38
2022-09-06T20:42:29.754Z,92984.38
2022-09-06T20:45:13.069Z,92981.97
2022-09-06T20:47:57.707Z,92976.13
2022-09-06T20:50:40.509Z,92977.94
2022-09-06T20:53:25.088Z,92982.78
2022-09-06T20:56:10.895Z,92988.38
2022-09-06T20:58:56.022Z,92985.16
2022-09-06T21:01:42.410Z,92983.34
2022-09-06T21:04:26.543Z,92992.59
2022-09-06T21:07:09.990Z,92990.38
2022-09-06T21:09:54.299Z,92993.38
2022-09-06T21:12:37.238Z,92989.97
2022-09-06T21:15:20.271Z,92979.31
2022-09-06T21:18:03.427Z,92980.13
2022-09-06T21:20:54.091Z,92975.91
2022-09-06T21:23:38.575Z,92977.47
2022-09-06T21:26:23.501Z,92976.66
2022-09-06T21:29:06.558Z,92974.06
2022-09-06T21:31:50.679Z,92973.84
2022-09-06T21:34:33.665Z,92979.88
2022-09-06T21:37:16.767Z,92976.44
2022-09-06T21:39:59.835Z,92978.28
2022-09-06T21:42:44.240Z,92970.44
2022-09-06T21:45:27.357Z,92977.03
2022-09-06T21:48:10.389Z,92973.63
2022-09-06T21:50:53.490Z,92970.75
2022-09-06T21:53:37.366Z,92972.53
2022-09-06T21:56:20.649Z,92971.91
2022-09-06T21:59:06.703Z,92969.53
2022-09-06T22:01:49.809Z,92964.94
2022-09-06T22:04:32.874Z,92970.59
2022-09-06T22:07:15.834Z,92962.03
2022-09-06T22:09:58.779Z,92965.09
2022-09-06T22:12:42.710Z,92966.53
2022-09-06T22:15:27.067Z,92959.91
2022-09-06T22:18:10.774Z,92955.53
2022-09-06T22:21:00.856Z,92961.13
2022-09-06T22:23:43.812Z,92962.75
2022-09-06T22:26:28.393Z,92962.75
2022-09-06T22:29:13.533Z,92963.53
2022-09-06T22:31:58.109Z,92958.34
2022-09-06T22:34:41.682Z,92957.13
2022-09-06T22:37:24.670Z,92955.34
2022-09-06T22:40:08.793Z,92949.91
2022-09-06T22:42:51.981Z,92958.34
2022-09-06T22:45:34.915Z,92956.72
2022-09-06T22:48:19.265Z,92956.72
2022-09-06T22:51:03.642Z,92953.69
2022-09-06T22:53:46.713Z,92957.91
2022-09-06T22:56:29.832Z,92956.28
2022-09-06T22:59:12.772Z,92961.31
2022-09-06T23:01:56.081Z,92964.34
2022-09-06T23:04:40.464Z,92965.53
2022-09-06T23:07:23.492Z,92957.09
2022-09-06T23:10:07.470Z,92954.13
2022-09-06T23:12:52.717Z,92957.94
2022-09-06T23:15:35.967Z,92960.94
2022-09-06T23:18:19.309Z,92963.78
2022-09-06T23:21:08.048Z,92953.34
2022-09-06T23:23:53.186Z,92944.50
2022-09-06T23:26:36.733Z,92934.06
2022-09-06T23:29:19.973Z,92937.91
2022-09-06T23:32:03.226Z,92940.72
2022-09-06T23:34:46.263Z,92945.94
2022-09-06T23:37:30.576Z,92946.53
2022-09-06T23:40:15.017Z,92952.94
2022-09-06T23:42:58.032Z,92951.16
2022-09-06T23:45:41.010Z,92955.34
2022-09-06T23:48:24.207Z,92956.56
2022-09-06T23:51:07.275Z,92957.38
2022-09-06T23:53:51.919Z,92950.75
2022-09-06T23:56:35.213Z,92955.56
2022-09-06T23:59:18.118Z,92952.13
